Coronel Xavier Chaves, Brazil
Current Conditions -  °F | °C
As of 6:00 AM on Friday 24 Oct 2014 (Local Time) from SBBQ Reporting Station
Haze Haze  
Wind Chill: 57°   Ceiling: 400
Heat Index: 57°   Visibility: 2.1mi
Dew Point: 55°   Wind: 5mph
Humidity: 94%   Direction: 70°ENE
Pressure: 30.18"   Gusts: NA
Location:  21.02°S, 44.22°W
Report Text: SBBQ 240800Z 07004KT 3500 BR OVC004 14/13 Q1022
Loading
Personal Weather Stations






























Interactive Weather Map
Tropical Storm Tracking
New forecast layout! Learn more

10-Day Weather Forecast

Advertisements
Track Severe Weather on mobile